Terminal Aerodrome Forecast
Issued by NWS

Home | Current Version | Previous Version | Text Only | Print | Product List | Glossary Off
Versions: 1 2 3 4 5 6 7 8 9 10 11 12 13 14 15 16 17 18 19 20 21 22

000
FTUS43 KICT 271102 AAC
TAFSLN
TAF AMD
KSLN 271102Z 2711/2806 VRB04KT P6SM BKN007
      TEMPO 2711/2714 SCT010 OVC080
     FM271400 16007KT P6SM BKN080
     FM271700 18009KT P6SM OVC100
     FM272000 16013KT P6SM SCT100=

USA.gov is the U.S. government's official web portal to all federal, state and local government web resources and services.